KMLB

Melbourne International Airport

Airport
ICAO code
KMLB
Summary
ICAO Region
NAM
ICAO Territory
Location

Melbourne, Florida,

Coordinates
28° 6' 8" N , 80° 37' 49" W
KCC
Airport LOS
Parallel Runway Operation
Metar
Observation
KMLB 070853Z AUTO 00000KT 10SM CLR 17/16 A3008 RMK AO2 SLP186 T01670156 58005
Station
Melbourne, Melbourne International Airport
Date/Time
2022-10-07 08:53:00
Wind direction
Wind speed
00 kts
Lowest cloud amount
n/a
Temperature
16.7°C
Dew point
15.6°C
Humidity
93%
Weather condition
n/a

Description

Melbourne International Airport is a public airport located 2.4 km northwest of the downtown business district of Melbourne, a city in Brevard County, Florida.

Climatology

Humid “subtropical” climate (Köppen climate classification Cfa) - characterized by hot, humid summers and cool winters. Significant amounts of precipitation occur in all seasons in most areas.

Runways

Designator Length Width Surface Rops
5/23 915 23 ASP Yes/Yes
09L/27R 1829 46 ASP Yes/Yes
09R/27L 3103 46 ASP Yes/Yes

Airport map

Aerial View

SKYbrary Partners:

Safety knowledge contributed by: